sensor_id;sensor_type;location;lat;lon;timestamp;P1;durP1;ratioP1;P2;durP2;ratioP2
30505;SDS011;17292;51.600;4.994;2023-02-11T00:03:50;14.77;;;5.88;;
30505;SDS011;17292;51.600;4.994;2023-02-11T00:06:16;12.38;;;6.50;;
30505;SDS011;17292;51.600;4.994;2023-02-11T00:08:42;13.68;;;6.65;;
30505;SDS011;17292;51.600;4.994;2023-02-11T00:11:12;15.32;;;6.43;;
30505;SDS011;17292;51.600;4.994;2023-02-11T00:13:39;12.90;;;5.65;;
30505;SDS011;17292;51.600;4.994;2023-02-11T00:16:06;13.25;;;5.80;;
30505;SDS011;17292;51.600;4.994;2023-02-11T00:18:32;14.82;;;5.88;;
30505;SDS011;17292;51.600;4.994;2023-02-11T00:21:04;15.13;;;6.85;;
30505;SDS011;17292;51.600;4.994;2023-02-11T00:23:30;16.13;;;6.88;;
30505;SDS011;17292;51.600;4.994;2023-02-11T00:25:56;11.25;;;5.82;;
30505;SDS011;17292;51.600;4.994;2023-02-11T00:28:22;23.00;;;6.40;;
30505;SDS011;17292;51.600;4.994;2023-02-11T00:30:55;19.15;;;6.35;;
30505;SDS011;17292;51.600;4.994;2023-02-11T00:33:22;11.98;;;5.97;;
30505;SDS011;17292;51.600;4.994;2023-02-11T00:35:49;12.07;;;5.90;;
30505;SDS011;17292;51.600;4.994;2023-02-11T00:38:15;9.90;;;5.70;;
30505;SDS011;17292;51.600;4.994;2023-02-11T00:40:41;14.18;;;5.88;;
30505;SDS011;17292;51.600;4.994;2023-02-11T00:43:07;15.25;;;6.28;;
30505;SDS011;17292;51.600;4.994;2023-02-11T00:45:33;13.73;;;5.90;;
30505;SDS011;17292;51.600;4.994;2023-02-11T00:47:59;16.52;;;5.68;;
30505;SDS011;17292;51.600;4.994;2023-02-11T00:50:26;13.88;;;6.30;;
30505;SDS011;17292;51.600;4.994;2023-02-11T00:52:52;11.38;;;5.45;;
30505;SDS011;17292;51.600;4.994;2023-02-11T00:55:18;14.73;;;6.03;;
30505;SDS011;17292;51.600;4.994;2023-02-11T00:57:44;13.73;;;6.35;;
30505;SDS011;17292;51.600;4.994;2023-02-11T01:00:12;18.33;;;6.30;;
30505;SDS011;17292;51.600;4.994;2023-02-11T01:02:38;16.27;;;6.43;;
30505;SDS011;17292;51.600;4.994;2023-02-11T01:05:05;14.88;;;6.53;;
30505;SDS011;17292;51.600;4.994;2023-02-11T01:07:31;13.65;;;6.22;;
30505;SDS011;17292;51.600;4.994;2023-02-11T01:09:57;9.40;;;5.18;;
30505;SDS011;17292;51.600;4.994;2023-02-11T01:12:24;15.90;;;6.22;;
30505;SDS011;17292;51.600;4.994;2023-02-11T01:14:50;11.85;;;6.05;;
30505;SDS011;17292;51.600;4.994;2023-02-11T01:17:16;13.50;;;5.88;;
30505;SDS011;17292;51.600;4.994;2023-02-11T01:19:42;12.45;;;5.43;;
30505;SDS011;17292;51.600;4.994;2023-02-11T01:22:09;17.60;;;6.60;;
30505;SDS011;17292;51.600;4.994;2023-02-11T01:24:35;15.13;;;5.88;;
30505;SDS011;17292;51.600;4.994;2023-02-11T01:27:01;11.77;;;5.53;;
30505;SDS011;17292;51.600;4.994;2023-02-11T01:29:27;13.80;;;6.20;;
30505;SDS011;17292;51.600;4.994;2023-02-11T01:31:53;12.20;;;5.40;;
30505;SDS011;17292;51.600;4.994;2023-02-11T01:34:19;12.13;;;5.80;;
30505;SDS011;17292;51.600;4.994;2023-02-11T01:36:45;14.60;;;6.70;;
30505;SDS011;17292;51.600;4.994;2023-02-11T01:39:12;12.73;;;6.00;;
30505;SDS011;17292;51.600;4.994;2023-02-11T01:41:38;10.90;;;5.88;;
30505;SDS011;17292;51.600;4.994;2023-02-11T01:47:06;11.25;;;6.07;;
30505;SDS011;17292;51.600;4.994;2023-02-11T01:49:33;11.60;;;5.88;;
30505;SDS011;17292;51.600;4.994;2023-02-11T01:54:29;11.43;;;5.82;;
30505;SDS011;17292;51.600;4.994;2023-02-11T01:57:16;11.93;;;5.90;;
30505;SDS011;17292;51.600;4.994;2023-02-11T02:02:19;11.38;;;5.60;;
30505;SDS011;17292;51.600;4.994;2023-02-11T02:04:51;14.52;;;5.50;;
30505;SDS011;17292;51.600;4.994;2023-02-11T02:07:26;8.75;;;5.50;;
30505;SDS011;17292;51.600;4.994;2023-02-11T02:09:57;18.38;;;6.15;;
30505;SDS011;17292;51.600;4.994;2023-02-11T02:12:23;7.75;;;5.38;;
30505;SDS011;17292;51.600;4.994;2023-02-11T02:14:49;11.57;;;5.05;;
30505;SDS011;17292;51.600;4.994;2023-02-11T02:17:26;13.05;;;5.80;;
30505;SDS011;17292;51.600;4.994;2023-02-11T02:25:18;13.85;;;5.55;;
30505;SDS011;17292;51.600;4.994;2023-02-11T02:32:52;12.68;;;5.70;;
30505;SDS011;17292;51.600;4.994;2023-02-11T02:40:20;11.68;;;5.60;;
30505;SDS011;17292;51.600;4.994;2023-02-11T02:42:48;13.27;;;5.65;;
30505;SDS011;17292;51.600;4.994;2023-02-11T02:45:15;10.90;;;5.88;;
30505;SDS011;17292;51.600;4.994;2023-02-11T02:47:41;11.25;;;5.78;;
30505;SDS011;17292;51.600;4.994;2023-02-11T02:50:07;11.50;;;6.07;;
30505;SDS011;17292;51.600;4.994;2023-02-11T02:52:59;11.10;;;5.40;;
30505;SDS011;17292;51.600;4.994;2023-02-11T03:08:15;12.73;;;6.07;;
30505;SDS011;17292;51.600;4.994;2023-02-11T03:10:43;13.85;;;5.60;;
30505;SDS011;17292;51.600;4.994;2023-02-11T03:13:10;12.95;;;5.78;;
30505;SDS011;17292;51.600;4.994;2023-02-11T03:15:40;13.07;;;5.75;;
30505;SDS011;17292;51.600;4.994;2023-02-11T03:18:08;15.68;;;6.28;;
30505;SDS011;17292;51.600;4.994;2023-02-11T03:20:37;13.55;;;5.68;;
30505;SDS011;17292;51.600;4.994;2023-02-11T03:23:10;13.70;;;5.45;;
30505;SDS011;17292;51.600;4.994;2023-02-11T03:33:26;15.50;;;5.63;;
30505;SDS011;17292;51.600;4.994;2023-02-11T03:36:01;10.65;;;5.63;;
30505;SDS011;17292;51.600;4.994;2023-02-11T03:38:29;11.65;;;5.43;;
30505;SDS011;17292;51.600;4.994;2023-02-11T03:40:57;10.93;;;5.15;;
30505;SDS011;17292;51.600;4.994;2023-02-11T03:43:25;9.05;;;5.72;;
30505;SDS011;17292;51.600;4.994;2023-02-11T03:45:53;14.13;;;5.80;;
30505;SDS011;17292;51.600;4.994;2023-02-11T03:48:24;10.40;;;5.20;;
30505;SDS011;17292;51.600;4.994;2023-02-11T03:50:51;12.93;;;5.40;;
30505;SDS011;17292;51.600;4.994;2023-02-11T03:53:19;12.13;;;5.55;;
30505;SDS011;17292;51.600;4.994;2023-02-11T03:55:47;12.85;;;5.65;;
30505;SDS011;17292;51.600;4.994;2023-02-11T03:58:14;9.38;;;4.97;;
30505;SDS011;17292;51.600;4.994;2023-02-11T04:00:41;11.93;;;5.25;;
30505;SDS011;17292;51.600;4.994;2023-02-11T04:03:08;12.18;;;5.57;;
30505;SDS011;17292;51.600;4.994;2023-02-11T04:05:35;11.05;;;5.90;;
30505;SDS011;17292;51.600;4.994;2023-02-11T04:08:01;10.25;;;5.75;;
30505;SDS011;17292;51.600;4.994;2023-02-11T04:10:27;14.18;;;5.50;;
30505;SDS011;17292;51.600;4.994;2023-02-11T04:12:54;10.75;;;5.95;;
30505;SDS011;17292;51.600;4.994;2023-02-11T04:15:20;10.52;;;5.55;;
30505;SDS011;17292;51.600;4.994;2023-02-11T04:17:46;8.57;;;5.22;;
30505;SDS011;17292;51.600;4.994;2023-02-11T04:20:12;13.05;;;5.72;;
30505;SDS011;17292;51.600;4.994;2023-02-11T04:22:39;9.65;;;4.93;;
30505;SDS011;17292;51.600;4.994;2023-02-11T04:25:05;8.85;;;5.32;;
30505;SDS011;17292;51.600;4.994;2023-02-11T04:27:31;9.70;;;4.97;;
30505;SDS011;17292;51.600;4.994;2023-02-11T04:29:57;9.88;;;5.07;;
30505;SDS011;17292;51.600;4.994;2023-02-11T04:32:24;8.45;;;4.82;;
30505;SDS011;17292;51.600;4.994;2023-02-11T04:34:50;10.40;;;5.38;;
30505;SDS011;17292;51.600;4.994;2023-02-11T04:37:16;11.32;;;5.45;;
30505;SDS011;17292;51.600;4.994;2023-02-11T04:39:42;8.77;;;4.80;;
30505;SDS011;17292;51.600;4.994;2023-02-11T04:42:08;13.07;;;5.28;;
30505;SDS011;17292;51.600;4.994;2023-02-11T04:44:34;10.80;;;5.32;;
30505;SDS011;17292;51.600;4.994;2023-02-11T04:47:00;8.20;;;5.15;;
30505;SDS011;17292;51.600;4.994;2023-02-11T04:49:27;10.95;;;5.38;;
30505;SDS011;17292;51.600;4.994;2023-02-11T04:51:53;12.07;;;5.78;;
30505;SDS011;17292;51.600;4.994;2023-02-11T04:54:19;9.77;;;5.43;;
30505;SDS011;17292;51.600;4.994;2023-02-11T04:56:46;7.75;;;4.95;;
30505;SDS011;17292;51.600;4.994;2023-02-11T04:59:13;10.07;;;5.40;;
30505;SDS011;17292;51.600;4.994;2023-02-11T05:01:40;12.52;;;5.53;;
30505;SDS011;17292;51.600;4.994;2023-02-11T05:04:06;10.20;;;5.50;;
30505;SDS011;17292;51.600;4.994;2023-02-11T05:06:32;14.38;;;5.47;;
30505;SDS011;17292;51.600;4.994;2023-02-11T05:08:58;7.25;;;4.88;;
30505;SDS011;17292;51.600;4.994;2023-02-11T05:11:25;10.75;;;4.97;;
30505;SDS011;17292;51.600;4.994;2023-02-11T05:13:51;11.88;;;5.57;;
30505;SDS011;17292;51.600;4.994;2023-02-11T05:16:17;8.05;;;4.65;;
30505;SDS011;17292;51.600;4.994;2023-02-11T05:18:44;7.47;;;4.72;;
30505;SDS011;17292;51.600;4.994;2023-02-11T05:21:12;10.63;;;5.10;;
30505;SDS011;17292;51.600;4.994;2023-02-11T05:23:38;9.43;;;4.88;;
30505;SDS011;17292;51.600;4.994;2023-02-11T05:26:05;7.72;;;4.75;;
30505;SDS011;17292;51.600;4.994;2023-02-11T05:28:32;9.43;;;5.68;;
30505;SDS011;17292;51.600;4.994;2023-02-11T05:30:59;10.25;;;4.85;;
30505;SDS011;17292;51.600;4.994;2023-02-11T05:33:25;8.98;;;5.50;;
30505;SDS011;17292;51.600;4.994;2023-02-11T05:35:56;9.93;;;5.40;;
30505;SDS011;17292;51.600;4.994;2023-02-11T05:38:22;8.85;;;5.20;;
30505;SDS011;17292;51.600;4.994;2023-02-11T05:40:48;7.35;;;4.90;;
30505;SDS011;17292;51.600;4.994;2023-02-11T05:43:14;7.72;;;4.80;;
30505;SDS011;17292;51.600;4.994;2023-02-11T05:45:40;9.23;;;5.28;;
30505;SDS011;17292;51.600;4.994;2023-02-11T05:48:07;9.45;;;5.28;;
30505;SDS011;17292;51.600;4.994;2023-02-11T05:50:33;10.02;;;4.95;;
30505;SDS011;17292;51.600;4.994;2023-02-11T05:52:59;9.63;;;5.00;;
30505;SDS011;17292;51.600;4.994;2023-02-11T05:55:25;11.57;;;5.25;;
30505;SDS011;17292;51.600;4.994;2023-02-11T05:57:51;11.48;;;4.88;;
30505;SDS011;17292;51.600;4.994;2023-02-11T06:00:18;8.77;;;4.88;;
30505;SDS011;17292;51.600;4.994;2023-02-11T06:02:44;7.05;;;4.50;;
30505;SDS011;17292;51.600;4.994;2023-02-11T06:05:10;13.30;;;5.50;;
30505;SDS011;17292;51.600;4.994;2023-02-11T06:07:36;8.18;;;5.20;;
30505;SDS011;17292;51.600;4.994;2023-02-11T06:10:02;13.30;;;5.85;;
30505;SDS011;17292;51.600;4.994;2023-02-11T06:12:28;5.82;;;4.18;;
30505;SDS011;17292;51.600;4.994;2023-02-11T06:14:55;10.73;;;5.25;;
30505;SDS011;17292;51.600;4.994;2023-02-11T06:17:21;9.48;;;4.82;;
30505;SDS011;17292;51.600;4.994;2023-02-11T06:19:47;11.82;;;4.90;;
30505;SDS011;17292;51.600;4.994;2023-02-11T06:22:13;10.35;;;5.10;;
30505;SDS011;17292;51.600;4.994;2023-02-11T06:24:40;7.13;;;4.55;;
30505;SDS011;17292;51.600;4.994;2023-02-11T06:27:06;8.38;;;4.93;;
30505;SDS011;17292;51.600;4.994;2023-02-11T06:29:33;11.70;;;5.80;;
30505;SDS011;17292;51.600;4.994;2023-02-11T06:31:59;8.10;;;4.80;;
30505;SDS011;17292;51.600;4.994;2023-02-11T06:34:25;8.05;;;5.20;;
30505;SDS011;17292;51.600;4.994;2023-02-11T06:36:51;12.05;;;5.20;;
30505;SDS011;17292;51.600;4.994;2023-02-11T06:39:17;12.43;;;5.78;;
30505;SDS011;17292;51.600;4.994;2023-02-11T06:41:43;10.52;;;5.30;;
30505;SDS011;17292;51.600;4.994;2023-02-11T06:44:10;7.97;;;4.75;;
30505;SDS011;17292;51.600;4.994;2023-02-11T06:46:36;11.70;;;5.30;;
30505;SDS011;17292;51.600;4.994;2023-02-11T06:49:02;11.05;;;5.80;;
30505;SDS011;17292;51.600;4.994;2023-02-11T06:51:28;11.27;;;4.93;;
30505;SDS011;17292;51.600;4.994;2023-02-11T06:53:54;9.30;;;4.70;;
30505;SDS011;17292;51.600;4.994;2023-02-11T06:56:21;10.20;;;4.82;;
30505;SDS011;17292;51.600;4.994;2023-02-11T06:58:50;8.48;;;4.80;;
30505;SDS011;17292;51.600;4.994;2023-02-11T07:01:17;9.25;;;5.28;;
30505;SDS011;17292;51.600;4.994;2023-02-11T07:03:43;8.90;;;4.75;;
30505;SDS011;17292;51.600;4.994;2023-02-11T07:06:15;10.02;;;5.00;;
30505;SDS011;17292;51.600;4.994;2023-02-11T07:08:41;8.57;;;4.90;;
30505;SDS011;17292;51.600;4.994;2023-02-11T07:11:17;8.70;;;4.97;;
30505;SDS011;17292;51.600;4.994;2023-02-11T07:13:43;10.00;;;5.03;;
30505;SDS011;17292;51.600;4.994;2023-02-11T07:16:11;11.57;;;5.18;;
30505;SDS011;17292;51.600;4.994;2023-02-11T07:18:37;11.80;;;4.88;;
30505;SDS011;17292;51.600;4.994;2023-02-11T07:21:04;11.52;;;5.22;;
30505;SDS011;17292;51.600;4.994;2023-02-11T07:23:31;9.65;;;5.22;;
30505;SDS011;17292;51.600;4.994;2023-02-11T07:26:01;9.43;;;4.60;;
30505;SDS011;17292;51.600;4.994;2023-02-11T07:28:27;8.13;;;4.38;;
30505;SDS011;17292;51.600;4.994;2023-02-11T07:30:53;10.10;;;5.20;;
30505;SDS011;17292;51.600;4.994;2023-02-11T07:33:19;13.32;;;5.13;;
30505;SDS011;17292;51.600;4.994;2023-02-11T07:35:45;10.32;;;4.60;;
30505;SDS011;17292;51.600;4.994;2023-02-11T07:38:12;9.25;;;4.72;;
30505;SDS011;17292;51.600;4.994;2023-02-11T07:40:38;10.00;;;5.43;;
30505;SDS011;17292;51.600;4.994;2023-02-11T07:43:04;8.48;;;5.53;;
30505;SDS011;17292;51.600;4.994;2023-02-11T07:45:31;9.88;;;5.10;;
30505;SDS011;17292;51.600;4.994;2023-02-11T07:47:57;6.82;;;4.68;;
30505;SDS011;17292;51.600;4.994;2023-02-11T07:50:23;12.73;;;5.10;;
30505;SDS011;17292;51.600;4.994;2023-02-11T07:52:49;10.55;;;5.07;;
30505;SDS011;17292;51.600;4.994;2023-02-11T07:55:15;8.20;;;4.50;;
30505;SDS011;17292;51.600;4.994;2023-02-11T07:57:41;9.05;;;4.80;;
30505;SDS011;17292;51.600;4.994;2023-02-11T08:00:08;8.02;;;4.35;;
30505;SDS011;17292;51.600;4.994;2023-02-11T08:02:34;8.57;;;5.20;;
30505;SDS011;17292;51.600;4.994;2023-02-11T08:05:00;11.93;;;5.05;;
30505;SDS011;17292;51.600;4.994;2023-02-11T08:07:27;10.77;;;5.13;;
30505;SDS011;17292;51.600;4.994;2023-02-11T08:09:53;12.15;;;5.03;;
30505;SDS011;17292;51.600;4.994;2023-02-11T08:12:19;8.93;;;4.15;;
30505;SDS011;17292;51.600;4.994;2023-02-11T08:14:46;13.07;;;5.15;;
30505;SDS011;17292;51.600;4.994;2023-02-11T08:17:12;9.52;;;4.07;;
30505;SDS011;17292;51.600;4.994;2023-02-11T08:19:38;12.93;;;4.90;;
30505;SDS011;17292;51.600;4.994;2023-02-11T08:22:04;8.00;;;4.20;;
30505;SDS011;17292;51.600;4.994;2023-02-11T08:24:31;10.52;;;4.93;;
30505;SDS011;17292;51.600;4.994;2023-02-11T08:26:57;12.70;;;4.90;;
30505;SDS011;17292;51.600;4.994;2023-02-11T08:29:23;10.85;;;5.38;;
30505;SDS011;17292;51.600;4.994;2023-02-11T08:31:49;10.07;;;4.53;;
30505;SDS011;17292;51.600;4.994;2023-02-11T08:34:15;11.60;;;4.75;;
30505;SDS011;17292;51.600;4.994;2023-02-11T08:36:46;18.15;;;5.78;;
30505;SDS011;17292;51.600;4.994;2023-02-11T08:39:17;25.58;;;5.63;;
30505;SDS011;17292;51.600;4.994;2023-02-11T08:41:43;11.68;;;4.45;;
30505;SDS011;17292;51.600;4.994;2023-02-11T08:44:10;9.68;;;4.70;;
30505;SDS011;17292;51.600;4.994;2023-02-11T08:46:36;11.52;;;4.75;;
30505;SDS011;17292;51.600;4.994;2023-02-11T08:49:02;9.45;;;4.68;;
30505;SDS011;17292;51.600;4.994;2023-02-11T08:51:29;14.10;;;4.40;;
30505;SDS011;17292;51.600;4.994;2023-02-11T08:53:55;11.18;;;5.65;;
30505;SDS011;17292;51.600;4.994;2023-02-11T08:56:22;10.63;;;4.47;;
30505;SDS011;17292;51.600;4.994;2023-02-11T08:58:49;9.63;;;4.85;;
30505;SDS011;17292;51.600;4.994;2023-02-11T09:01:16;9.70;;;3.88;;
30505;SDS011;17292;51.600;4.994;2023-02-11T09:03:43;12.30;;;4.78;;
30505;SDS011;17292;51.600;4.994;2023-02-11T09:06:09;11.73;;;4.53;;
30505;SDS011;17292;51.600;4.994;2023-02-11T09:08:36;10.63;;;4.30;;
30505;SDS011;17292;51.600;4.994;2023-02-11T09:11:03;11.75;;;5.13;;
30505;SDS011;17292;51.600;4.994;2023-02-11T09:13:30;8.60;;;4.50;;
30505;SDS011;17292;51.600;4.994;2023-02-11T09:15:57;16.40;;;5.28;;
30505;SDS011;17292;51.600;4.994;2023-02-11T09:18:23;16.55;;;4.63;;
30505;SDS011;17292;51.600;4.994;2023-02-11T09:20:49;7.75;;;4.68;;
30505;SDS011;17292;51.600;4.994;2023-02-11T09:23:15;14.95;;;5.05;;
30505;SDS011;17292;51.600;4.994;2023-02-11T09:25:42;8.48;;;4.95;;
30505;SDS011;17292;51.600;4.994;2023-02-11T09:28:08;8.15;;;4.85;;
30505;SDS011;17292;51.600;4.994;2023-02-11T09:30:35;10.00;;;4.82;;
30505;SDS011;17292;51.600;4.994;2023-02-11T09:33:02;16.40;;;5.07;;
30505;SDS011;17292;51.600;4.994;2023-02-11T09:35:28;11.88;;;4.63;;
30505;SDS011;17292;51.600;4.994;2023-02-11T09:37:54;14.52;;;4.65;;
30505;SDS011;17292;51.600;4.994;2023-02-11T09:40:21;11.15;;;4.78;;
30505;SDS011;17292;51.600;4.994;2023-02-11T09:43:00;10.60;;;4.95;;
30505;SDS011;17292;51.600;4.994;2023-02-11T09:45:28;12.68;;;4.30;;
30505;SDS011;17292;51.600;4.994;2023-02-11T09:47:56;10.13;;;4.82;;
30505;SDS011;17292;51.600;4.994;2023-02-11T09:53:02;18.42;;;5.15;;
30505;SDS011;17292;51.600;4.994;2023-02-11T09:55:39;12.23;;;4.80;;
30505;SDS011;17292;51.600;4.994;2023-02-11T09:58:13;13.85;;;5.20;;
30505;SDS011;17292;51.600;4.994;2023-02-11T10:00:56;13.70;;;5.32;;
30505;SDS011;17292;51.600;4.994;2023-02-11T10:11:21;13.57;;;4.57;;
30505;SDS011;17292;51.600;4.994;2023-02-11T10:13:58;15.30;;;4.90;;
30505;SDS011;17292;51.600;4.994;2023-02-11T10:19:41;12.60;;;5.05;;
30505;SDS011;17292;51.600;4.994;2023-02-11T10:22:21;12.48;;;4.78;;
30505;SDS011;17292;51.600;4.994;2023-02-11T10:24:54;14.50;;;5.07;;
30505;SDS011;17292;51.600;4.994;2023-02-11T10:27:31;14.63;;;5.45;;
30505;SDS011;17292;51.600;4.994;2023-02-11T10:30:31;8.85;;;4.35;;
30505;SDS011;17292;51.600;4.994;2023-02-11T10:35:18;20.10;;;5.70;;
30505;SDS011;17292;51.600;4.994;2023-02-11T10:37:45;14.70;;;4.72;;
30505;SDS011;17292;51.600;4.994;2023-02-11T10:40:32;16.23;;;4.85;;
30505;SDS011;17292;51.600;4.994;2023-02-11T10:42:59;12.40;;;5.20;;
30505;SDS011;17292;51.600;4.994;2023-02-11T10:45:31;14.75;;;4.93;;
30505;SDS011;17292;51.600;4.994;2023-02-11T10:50:25;22.00;;;5.70;;
30505;SDS011;17292;51.600;4.994;2023-02-11T10:52:52;17.08;;;5.75;;
30505;SDS011;17292;51.600;4.994;2023-02-11T10:55:20;20.08;;;4.90;;
30505;SDS011;17292;51.600;4.994;2023-02-11T11:02:50;17.30;;;5.45;;
30505;SDS011;17292;51.600;4.994;2023-02-11T11:05:18;20.33;;;5.10;;
30505;SDS011;17292;51.600;4.994;2023-02-11T11:07:57;13.38;;;4.90;;
30505;SDS011;17292;51.600;4.994;2023-02-11T11:12:53;18.73;;;5.30;;
30505;SDS011;17292;51.600;4.994;2023-02-11T11:15:26;15.45;;;5.47;;
30505;SDS011;17292;51.600;4.994;2023-02-11T11:18:26;21.88;;;5.25;;
30505;SDS011;17292;51.600;4.994;2023-02-11T11:20:56;15.73;;;5.53;;
30505;SDS011;17292;51.600;4.994;2023-02-11T11:23:23;12.40;;;5.00;;
30505;SDS011;17292;51.600;4.994;2023-02-11T11:26:23;15.30;;;4.88;;
30505;SDS011;17292;51.600;4.994;2023-02-11T11:28:49;15.68;;;5.10;;
30505;SDS011;17292;51.600;4.994;2023-02-11T11:31:23;17.27;;;5.35;;
30505;SDS011;17292;51.600;4.994;2023-02-11T11:33:52;10.85;;;4.65;;
30505;SDS011;17292;51.600;4.994;2023-02-11T11:36:19;18.58;;;5.38;;
30505;SDS011;17292;51.600;4.994;2023-02-11T11:38:48;17.00;;;5.30;;
30505;SDS011;17292;51.600;4.994;2023-02-11T11:41:17;15.40;;;5.45;;
30505;SDS011;17292;51.600;4.994;2023-02-11T11:46:23;11.98;;;4.45;;
30505;SDS011;17292;51.600;4.994;2023-02-11T11:48:50;17.00;;;5.20;;
30505;SDS011;17292;51.600;4.994;2023-02-11T11:51:16;14.27;;;4.88;;
30505;SDS011;17292;51.600;4.994;2023-02-11T11:53:44;14.93;;;5.68;;
30505;SDS011;17292;51.600;4.994;2023-02-11T11:56:13;11.63;;;4.70;;
30505;SDS011;17292;51.600;4.994;2023-02-11T11:58:41;18.50;;;5.50;;
30505;SDS011;17292;51.600;4.994;2023-02-11T12:07:01;10.60;;;5.03;;
30505;SDS011;17292;51.600;4.994;2023-02-11T12:09:52;13.20;;;4.75;;
30505;SDS011;17292;51.600;4.994;2023-02-11T12:12:30;10.07;;;4.68;;
30505;SDS011;17292;51.600;4.994;2023-02-11T12:17:44;15.85;;;5.22;;
30505;SDS011;17292;51.600;4.994;2023-02-11T12:22:55;13.80;;;5.32;;
30505;SDS011;17292;51.600;4.994;2023-02-11T12:30:34;16.27;;;5.43;;
30505;SDS011;17292;51.600;4.994;2023-02-11T12:33:15;19.70;;;5.45;;
30505;SDS011;17292;51.600;4.994;2023-02-11T12:41:00;17.17;;;4.47;;
30505;SDS011;17292;51.600;4.994;2023-02-11T12:46:05;15.10;;;5.38;;
30505;SDS011;17292;51.600;4.994;2023-02-11T12:51:02;13.23;;;4.63;;
30505;SDS011;17292;51.600;4.994;2023-02-11T12:53:35;19.80;;;5.63;;
30505;SDS011;17292;51.600;4.994;2023-02-11T12:56:17;11.18;;;4.88;;
30505;SDS011;17292;51.600;4.994;2023-02-11T12:58:44;18.17;;;4.80;;
30505;SDS011;17292;51.600;4.994;2023-02-11T13:01:17;13.55;;;5.25;;
30505;SDS011;17292;51.600;4.994;2023-02-11T13:03:50;14.68;;;5.13;;
30505;SDS011;17292;51.600;4.994;2023-02-11T13:06:21;17.58;;;4.95;;
30505;SDS011;17292;51.600;4.994;2023-02-11T13:08:51;15.90;;;5.07;;
30505;SDS011;17292;51.600;4.994;2023-02-11T13:14:21;16.80;;;4.70;;
30505;SDS011;17292;51.600;4.994;2023-02-11T13:16:49;16.73;;;5.15;;
30505;SDS011;17292;51.600;4.994;2023-02-11T13:19:30;17.45;;;5.18;;
30505;SDS011;17292;51.600;4.994;2023-02-11T13:29:28;12.23;;;4.72;;
30505;SDS011;17292;51.600;4.994;2023-02-11T13:32:17;15.95;;;5.50;;
30505;SDS011;17292;51.600;4.994;2023-02-11T13:37:51;25.50;;;4.95;;
30505;SDS011;17292;51.600;4.994;2023-02-11T13:39:59;17.48;;;5.03;;
30505;SDS011;17292;51.600;4.994;2023-02-11T13:42:26;16.08;;;4.93;;
30505;SDS011;17292;51.600;4.994;2023-02-11T13:44:53;17.45;;;4.78;;
30505;SDS011;17292;51.600;4.994;2023-02-11T13:47:30;13.10;;;4.70;;
30505;SDS011;17292;51.600;4.994;2023-02-11T13:49:57;16.60;;;4.72;;
30505;SDS011;17292;51.600;4.994;2023-02-11T13:52:28;13.25;;;4.45;;
30505;SDS011;17292;51.600;4.994;2023-02-11T13:54:57;16.95;;;5.03;;
30505;SDS011;17292;51.600;4.994;2023-02-11T13:57:26;19.02;;;5.30;;
30505;SDS011;17292;51.600;4.994;2023-02-11T13:59:55;21.02;;;5.35;;
30505;SDS011;17292;51.600;4.994;2023-02-11T14:02:32;12.85;;;5.32;;
30505;SDS011;17292;51.600;4.994;2023-02-11T14:10:59;17.42;;;5.30;;
30505;SDS011;17292;51.600;4.994;2023-02-11T14:23:38;17.10;;;5.63;;
30505;SDS011;17292;51.600;4.994;2023-02-11T14:26:51;24.33;;;5.57;;
30505;SDS011;17292;51.600;4.994;2023-02-11T14:28:53;16.05;;;5.25;;
30505;SDS011;17292;51.600;4.994;2023-02-11T14:31:45;17.27;;;5.68;;
30505;SDS011;17292;51.600;4.994;2023-02-11T14:39:27;21.40;;;5.32;;
30505;SDS011;17292;51.600;4.994;2023-02-11T14:41:54;21.73;;;5.50;;
30505;SDS011;17292;51.600;4.994;2023-02-11T14:44:24;19.52;;;5.30;;
30505;SDS011;17292;51.600;4.994;2023-02-11T14:46:52;17.60;;;5.07;;
30505;SDS011;17292;51.600;4.994;2023-02-11T14:49:30;29.17;;;6.07;;
30505;SDS011;17292;51.600;4.994;2023-02-11T14:51:59;33.42;;;5.55;;
30505;SDS011;17292;51.600;4.994;2023-02-11T14:54:28;24.27;;;5.15;;
30505;SDS011;17292;51.600;4.994;2023-02-11T14:59:34;18.58;;;5.38;;
30505;SDS011;17292;51.600;4.994;2023-02-11T15:02:00;25.20;;;5.60;;
30505;SDS011;17292;51.600;4.994;2023-02-11T15:04:28;28.98;;;5.80;;
30505;SDS011;17292;51.600;4.994;2023-02-11T15:06:54;27.00;;;5.25;;
30505;SDS011;17292;51.600;4.994;2023-02-11T15:10:05;20.10;;;5.43;;
30505;SDS011;17292;51.600;4.994;2023-02-11T15:12:22;21.80;;;5.40;;
30505;SDS011;17292;51.600;4.994;2023-02-11T15:14:49;17.38;;;5.40;;
30505;SDS011;17292;51.600;4.994;2023-02-11T15:17:17;28.67;;;5.30;;
30505;SDS011;17292;51.600;4.994;2023-02-11T15:19:46;19.90;;;4.88;;
30505;SDS011;17292;51.600;4.994;2023-02-11T15:22:16;20.75;;;5.22;;
30505;SDS011;17292;51.600;4.994;2023-02-11T15:24:44;23.83;;;4.85;;
30505;SDS011;17292;51.600;4.994;2023-02-11T15:27:11;16.67;;;4.97;;
30505;SDS011;17292;51.600;4.994;2023-02-11T15:29:44;22.02;;;5.55;;
30505;SDS011;17292;51.600;4.994;2023-02-11T15:34:36;18.83;;;5.10;;
30505;SDS011;17292;51.600;4.994;2023-02-11T15:37:03;19.70;;;5.18;;
30505;SDS011;17292;51.600;4.994;2023-02-11T15:41:55;23.08;;;6.15;;
30505;SDS011;17292;51.600;4.994;2023-02-11T15:44:28;21.35;;;4.82;;
30505;SDS011;17292;51.600;4.994;2023-02-11T15:46:55;21.48;;;5.40;;
30505;SDS011;17292;51.600;4.994;2023-02-11T15:49:22;16.58;;;5.60;;
30505;SDS011;17292;51.600;4.994;2023-02-11T15:51:49;15.70;;;5.00;;
30505;SDS011;17292;51.600;4.994;2023-02-11T15:54:17;19.67;;;5.20;;
30505;SDS011;17292;51.600;4.994;2023-02-11T15:56:45;22.10;;;5.35;;
30505;SDS011;17292;51.600;4.994;2023-02-11T16:01:39;20.10;;;5.32;;
30505;SDS011;17292;51.600;4.994;2023-02-11T16:04:06;16.80;;;5.78;;
30505;SDS011;17292;51.600;4.994;2023-02-11T16:06:40;19.10;;;4.80;;
30505;SDS011;17292;51.600;4.994;2023-02-11T16:17:10;19.87;;;4.90;;
30505;SDS011;17292;51.600;4.994;2023-02-11T16:19:43;21.23;;;5.18;;
30505;SDS011;17292;51.600;4.994;2023-02-11T16:22:15;22.42;;;4.95;;
30505;SDS011;17292;51.600;4.994;2023-02-11T16:24:44;17.55;;;5.55;;
30505;SDS011;17292;51.600;4.994;2023-02-11T16:27:17;23.83;;;4.80;;
30505;SDS011;17292;51.600;4.994;2023-02-11T16:29:46;19.20;;;5.97;;
30505;SDS011;17292;51.600;4.994;2023-02-11T16:32:23;19.92;;;5.47;;
30505;SDS011;17292;51.600;4.994;2023-02-11T16:34:49;19.08;;;4.82;;
30505;SDS011;17292;51.600;4.994;2023-02-11T16:37:16;18.20;;;4.85;;
30505;SDS011;17292;51.600;4.994;2023-02-11T16:39:42;20.55;;;5.20;;
30505;SDS011;17292;51.600;4.994;2023-02-11T16:42:11;20.45;;;5.03;;
30505;SDS011;17292;51.600;4.994;2023-02-11T16:44:38;26.15;;;5.80;;
30505;SDS011;17292;51.600;4.994;2023-02-11T16:47:05;22.75;;;5.50;;
30505;SDS011;17292;51.600;4.994;2023-02-11T16:49:35;14.88;;;4.80;;
30505;SDS011;17292;51.600;4.994;2023-02-11T16:52:05;27.15;;;5.57;;
30505;SDS011;17292;51.600;4.994;2023-02-11T16:54:31;18.90;;;5.40;;
30505;SDS011;17292;51.600;4.994;2023-02-11T16:56:57;22.17;;;4.80;;
30505;SDS011;17292;51.600;4.994;2023-02-11T16:59:23;15.90;;;5.00;;
30505;SDS011;17292;51.600;4.994;2023-02-11T17:01:50;22.08;;;5.40;;
30505;SDS011;17292;51.600;4.994;2023-02-11T17:04:19;22.95;;;5.57;;
30505;SDS011;17292;51.600;4.994;2023-02-11T17:06:45;16.67;;;5.13;;
30505;SDS011;17292;51.600;4.994;2023-02-11T17:09:19;21.60;;;5.65;;
30505;SDS011;17292;51.600;4.994;2023-02-11T17:11:46;22.05;;;5.75;;
30505;SDS011;17292;51.600;4.994;2023-02-11T17:14:12;16.23;;;4.88;;
30505;SDS011;17292;51.600;4.994;2023-02-11T17:16:39;15.75;;;5.00;;
30505;SDS011;17292;51.600;4.994;2023-02-11T17:19:05;17.17;;;5.18;;
30505;SDS011;17292;51.600;4.994;2023-02-11T17:21:31;23.52;;;5.22;;